sensor_id;sensor_type;location;lat;lon;timestamp;P1;durP1;ratioP1;P2;durP2;ratioP2
45402;SDS011;47427;51.976;5.326;2022-09-30T00:00:45;6.55;;;5.65;;
45402;SDS011;47427;51.976;5.326;2022-09-30T00:04:12;6.05;;;5.43;;
45402;SDS011;47427;51.976;5.326;2022-09-30T00:07:40;9.30;;;6.65;;
45402;SDS011;47427;51.976;5.326;2022-09-30T00:11:05;11.35;;;6.22;;
45402;SDS011;47427;51.976;5.326;2022-09-30T00:18:03;10.90;;;7.57;;
45402;SDS011;47427;51.976;5.326;2022-09-30T00:21:26;12.10;;;8.38;;
45402;SDS011;47427;51.976;5.326;2022-09-30T00:24:49;10.48;;;7.70;;
45402;SDS011;47427;51.976;5.326;2022-09-30T00:28:12;12.13;;;8.23;;
45402;SDS011;47427;51.976;5.326;2022-09-30T00:31:36;11.85;;;9.02;;
45402;SDS011;47427;51.976;5.326;2022-09-30T00:34:59;13.32;;;9.18;;
45402;SDS011;47427;51.976;5.326;2022-09-30T00:38:22;11.07;;;9.13;;
45402;SDS011;47427;51.976;5.326;2022-09-30T00:41:45;13.55;;;9.80;;
45402;SDS011;47427;51.976;5.326;2022-09-30T00:45:12;16.52;;;10.90;;
45402;SDS011;47427;51.976;5.326;2022-09-30T00:52:01;11.25;;;8.50;;
45402;SDS011;47427;51.976;5.326;2022-09-30T00:55:35;14.82;;;10.40;;
45402;SDS011;47427;51.976;5.326;2022-09-30T01:02:50;19.48;;;8.60;;
45402;SDS011;47427;51.976;5.326;2022-09-30T01:06:13;11.07;;;8.75;;
45402;SDS011;47427;51.976;5.326;2022-09-30T01:09:38;12.73;;;7.70;;
45402;SDS011;47427;51.976;5.326;2022-09-30T01:13:22;10.77;;;8.23;;
45402;SDS011;47427;51.976;5.326;2022-09-30T01:20:52;11.13;;;8.27;;
45402;SDS011;47427;51.976;5.326;2022-09-30T01:29:03;11.52;;;8.65;;
45402;SDS011;47427;51.976;5.326;2022-09-30T01:32:43;9.05;;;7.03;;
45402;SDS011;47427;51.976;5.326;2022-09-30T01:36:44;10.52;;;7.82;;
45402;SDS011;47427;51.976;5.326;2022-09-30T01:40:20;10.50;;;7.70;;
45402;SDS011;47427;51.976;5.326;2022-09-30T01:44:10;10.70;;;7.75;;
45402;SDS011;47427;51.976;5.326;2022-09-30T01:47:59;9.98;;;7.97;;
45402;SDS011;47427;51.976;5.326;2022-09-30T01:59:00;9.52;;;7.25;;
45402;SDS011;47427;51.976;5.326;2022-09-30T02:02:27;9.35;;;7.10;;
45402;SDS011;47427;51.976;5.326;2022-09-30T02:05:56;7.45;;;6.45;;
45402;SDS011;47427;51.976;5.326;2022-09-30T02:09:47;9.27;;;7.65;;
45402;SDS011;47427;51.976;5.326;2022-09-30T02:13:24;11.60;;;7.93;;
45402;SDS011;47427;51.976;5.326;2022-09-30T02:17:12;8.82;;;7.63;;
45402;SDS011;47427;51.976;5.326;2022-09-30T02:20:46;8.57;;;7.60;;
45402;SDS011;47427;51.976;5.326;2022-09-30T02:24:15;7.22;;;6.53;;
45402;SDS011;47427;51.976;5.326;2022-09-30T02:27:42;9.18;;;7.78;;
45402;SDS011;47427;51.976;5.326;2022-09-30T02:31:13;6.05;;;5.13;;
45402;SDS011;47427;51.976;5.326;2022-09-30T02:34:41;7.20;;;5.38;;
45402;SDS011;47427;51.976;5.326;2022-09-30T02:38:14;7.25;;;4.82;;
45402;SDS011;47427;51.976;5.326;2022-09-30T02:41:50;6.25;;;5.25;;
45402;SDS011;47427;51.976;5.326;2022-09-30T02:45:21;7.70;;;5.32;;
45402;SDS011;47427;51.976;5.326;2022-09-30T02:49:31;5.82;;;4.97;;
45402;SDS011;47427;51.976;5.326;2022-09-30T02:53:19;7.32;;;5.32;;
45402;SDS011;47427;51.976;5.326;2022-09-30T02:56:53;8.25;;;6.05;;
45402;SDS011;47427;51.976;5.326;2022-09-30T03:00:21;6.18;;;5.38;;
45402;SDS011;47427;51.976;5.326;2022-09-30T03:04:03;7.03;;;6.20;;
45402;SDS011;47427;51.976;5.326;2022-09-30T03:07:28;6.75;;;5.88;;
45402;SDS011;47427;51.976;5.326;2022-09-30T03:10:51;10.48;;;6.28;;
45402;SDS011;47427;51.976;5.326;2022-09-30T03:18:10;6.07;;;5.47;;
45402;SDS011;47427;51.976;5.326;2022-09-30T03:30:06;4.90;;;4.40;;
45402;SDS011;47427;51.976;5.326;2022-09-30T03:33:44;4.88;;;4.32;;
45402;SDS011;47427;51.976;5.326;2022-09-30T03:40:52;6.20;;;4.93;;
45402;SDS011;47427;51.976;5.326;2022-09-30T03:44:31;4.80;;;4.20;;
45402;SDS011;47427;51.976;5.326;2022-09-30T03:48:11;7.05;;;4.65;;
45402;SDS011;47427;51.976;5.326;2022-09-30T03:51:36;7.05;;;5.40;;
45402;SDS011;47427;51.976;5.326;2022-09-30T03:55:02;5.65;;;5.05;;
45402;SDS011;47427;51.976;5.326;2022-09-30T03:58:28;5.25;;;4.43;;
45402;SDS011;47427;51.976;5.326;2022-09-30T04:01:51;5.10;;;4.60;;
45402;SDS011;47427;51.976;5.326;2022-09-30T04:05:14;7.05;;;5.25;;
45402;SDS011;47427;51.976;5.326;2022-09-30T04:08:37;5.18;;;4.68;;
45402;SDS011;47427;51.976;5.326;2022-09-30T04:12:00;6.10;;;4.65;;
45402;SDS011;47427;51.976;5.326;2022-09-30T04:15:24;9.25;;;5.13;;
45402;SDS011;47427;51.976;5.326;2022-09-30T04:18:48;4.72;;;4.32;;
45402;SDS011;47427;51.976;5.326;2022-09-30T04:22:11;4.97;;;4.35;;
45402;SDS011;47427;51.976;5.326;2022-09-30T04:25:34;6.05;;;5.45;;
45402;SDS011;47427;51.976;5.326;2022-09-30T04:28:57;5.22;;;4.60;;
45402;SDS011;47427;51.976;5.326;2022-09-30T04:32:20;5.53;;;4.78;;
45402;SDS011;47427;51.976;5.326;2022-09-30T04:35:43;5.35;;;4.53;;
45402;SDS011;47427;51.976;5.326;2022-09-30T04:39:06;5.20;;;4.40;;
45402;SDS011;47427;51.976;5.326;2022-09-30T04:42:29;4.53;;;4.13;;
45402;SDS011;47427;51.976;5.326;2022-09-30T04:45:52;5.45;;;4.95;;
45402;SDS011;47427;51.976;5.326;2022-09-30T04:49:15;5.78;;;5.03;;
45402;SDS011;47427;51.976;5.326;2022-09-30T04:52:40;57.20;;;8.02;;
45402;SDS011;47427;51.976;5.326;2022-09-30T04:56:04;9.10;;;6.43;;
45402;SDS011;47427;51.976;5.326;2022-09-30T04:59:28;10.60;;;6.85;;
45402;SDS011;47427;51.976;5.326;2022-09-30T05:02:51;218.65;;;16.02;;
45402;SDS011;47427;51.976;5.326;2022-09-30T05:06:14;27.20;;;7.00;;
45402;SDS011;47427;51.976;5.326;2022-09-30T05:09:37;149.02;;;13.57;;
45402;SDS011;47427;51.976;5.326;2022-09-30T05:13:02;61.10;;;8.05;;
45402;SDS011;47427;51.976;5.326;2022-09-30T05:16:25;108.40;;;10.43;;
45402;SDS011;47427;51.976;5.326;2022-09-30T05:19:48;125.63;;;13.82;;
45402;SDS011;47427;51.976;5.326;2022-09-30T05:23:11;113.55;;;12.25;;
45402;SDS011;47427;51.976;5.326;2022-09-30T05:26:34;119.63;;;11.38;;
45402;SDS011;47427;51.976;5.326;2022-09-30T05:29:56;78.00;;;10.27;;
45402;SDS011;47427;51.976;5.326;2022-09-30T05:33:19;111.03;;;10.82;;
45402;SDS011;47427;51.976;5.326;2022-09-30T05:36:42;55.53;;;8.55;;
45402;SDS011;47427;51.976;5.326;2022-09-30T05:40:06;59.38;;;9.13;;
45402;SDS011;47427;51.976;5.326;2022-09-30T05:43:29;21.67;;;7.53;;
45402;SDS011;47427;51.976;5.326;2022-09-30T05:46:53;124.53;;;11.35;;
45402;SDS011;47427;51.976;5.326;2022-09-30T05:50:16;50.38;;;9.68;;
45402;SDS011;47427;51.976;5.326;2022-09-30T05:53:39;41.28;;;9.60;;
45402;SDS011;47427;51.976;5.326;2022-09-30T05:57:03;49.85;;;9.07;;
45402;SDS011;47427;51.976;5.326;2022-09-30T06:00:25;209.25;;;15.38;;
45402;SDS011;47427;51.976;5.326;2022-09-30T06:04:06;237.32;;;18.17;;
45402;SDS011;47427;51.976;5.326;2022-09-30T06:07:30;311.52;;;21.58;;
45402;SDS011;47427;51.976;5.326;2022-09-30T06:10:55;320.05;;;22.10;;
45402;SDS011;47427;51.976;5.326;2022-09-30T06:14:20;276.58;;;21.58;;
45402;SDS011;47427;51.976;5.326;2022-09-30T06:17:51;285.77;;;19.77;;
45402;SDS011;47427;51.976;5.326;2022-09-30T06:21:15;149.73;;;15.60;;
45402;SDS011;47427;51.976;5.326;2022-09-30T06:24:38;162.60;;;16.92;;
45402;SDS011;47427;51.976;5.326;2022-09-30T06:28:05;91.45;;;17.73;;
45402;SDS011;47427;51.976;5.326;2022-09-30T06:31:28;22.83;;;14.57;;
45402;SDS011;47427;51.976;5.326;2022-09-30T06:34:51;17.70;;;14.02;;
45402;SDS011;47427;51.976;5.326;2022-09-30T06:38:16;18.05;;;15.00;;
45402;SDS011;47427;51.976;5.326;2022-09-30T06:41:39;20.35;;;17.25;;
45402;SDS011;47427;51.976;5.326;2022-09-30T06:45:08;24.35;;;19.40;;
45402;SDS011;47427;51.976;5.326;2022-09-30T06:48:32;23.02;;;19.15;;
45402;SDS011;47427;51.976;5.326;2022-09-30T06:51:55;25.95;;;20.33;;
45402;SDS011;47427;51.976;5.326;2022-09-30T06:55:21;28.77;;;23.08;;
45402;SDS011;47427;51.976;5.326;2022-09-30T06:58:45;29.38;;;22.98;;
45402;SDS011;47427;51.976;5.326;2022-09-30T07:02:09;27.70;;;22.10;;
45402;SDS011;47427;51.976;5.326;2022-09-30T07:05:32;27.10;;;22.02;;
45402;SDS011;47427;51.976;5.326;2022-09-30T07:08:55;27.38;;;20.90;;
45402;SDS011;47427;51.976;5.326;2022-09-30T07:12:17;24.88;;;20.00;;
45402;SDS011;47427;51.976;5.326;2022-09-30T07:15:40;20.80;;;18.02;;
45402;SDS011;47427;51.976;5.326;2022-09-30T07:19:03;23.50;;;17.35;;
45402;SDS011;47427;51.976;5.326;2022-09-30T07:22:28;19.08;;;16.95;;
45402;SDS011;47427;51.976;5.326;2022-09-30T07:25:56;20.15;;;18.20;;
45402;SDS011;47427;51.976;5.326;2022-09-30T07:29:23;20.38;;;18.27;;
45402;SDS011;47427;51.976;5.326;2022-09-30T07:32:46;19.83;;;17.83;;
45402;SDS011;47427;51.976;5.326;2022-09-30T07:36:09;19.10;;;17.30;;
45402;SDS011;47427;51.976;5.326;2022-09-30T07:39:33;20.45;;;18.52;;
45402;SDS011;47427;51.976;5.326;2022-09-30T07:42:56;18.95;;;17.23;;
45402;SDS011;47427;51.976;5.326;2022-09-30T07:46:20;19.67;;;17.67;;
45402;SDS011;47427;51.976;5.326;2022-09-30T07:49:45;21.70;;;18.60;;
45402;SDS011;47427;51.976;5.326;2022-09-30T07:53:08;20.67;;;18.67;;
45402;SDS011;47427;51.976;5.326;2022-09-30T07:56:31;21.20;;;19.15;;
45402;SDS011;47427;51.976;5.326;2022-09-30T07:59:55;21.75;;;19.70;;
45402;SDS011;47427;51.976;5.326;2022-09-30T08:03:19;21.27;;;19.17;;
45402;SDS011;47427;51.976;5.326;2022-09-30T08:07:00;20.13;;;18.13;;
45402;SDS011;47427;51.976;5.326;2022-09-30T08:10:24;20.00;;;18.17;;
45402;SDS011;47427;51.976;5.326;2022-09-30T08:13:50;18.40;;;16.35;;
45402;SDS011;47427;51.976;5.326;2022-09-30T08:17:14;17.00;;;15.32;;
45402;SDS011;47427;51.976;5.326;2022-09-30T08:20:37;17.73;;;16.13;;
45402;SDS011;47427;51.976;5.326;2022-09-30T08:24:02;17.55;;;15.93;;
45402;SDS011;47427;51.976;5.326;2022-09-30T08:27:24;17.00;;;15.50;;
45402;SDS011;47427;51.976;5.326;2022-09-30T08:30:48;15.18;;;13.57;;
45402;SDS011;47427;51.976;5.326;2022-09-30T08:34:11;19.33;;;13.90;;
45402;SDS011;47427;51.976;5.326;2022-09-30T08:37:33;18.70;;;13.95;;
45402;SDS011;47427;51.976;5.326;2022-09-30T08:52:51;13.55;;;12.15;;
45402;SDS011;47427;51.976;5.326;2022-09-30T08:56:21;12.40;;;11.07;;
45402;SDS011;47427;51.976;5.326;2022-09-30T09:03:24;12.60;;;11.40;;
45402;SDS011;47427;51.976;5.326;2022-09-30T09:06:52;12.48;;;11.18;;
45402;SDS011;47427;51.976;5.326;2022-09-30T09:11:13;12.75;;;11.57;;
45402;SDS011;47427;51.976;5.326;2022-09-30T09:14:45;12.15;;;10.65;;
45402;SDS011;47427;51.976;5.326;2022-09-30T09:22:14;11.40;;;10.27;;
45402;SDS011;47427;51.976;5.326;2022-09-30T09:25:37;13.40;;;12.13;;
45402;SDS011;47427;51.976;5.326;2022-09-30T09:29:07;10.73;;;9.73;;
45402;SDS011;47427;51.976;5.326;2022-09-30T09:33:31;10.70;;;8.63;;
45402;SDS011;47427;51.976;5.326;2022-09-30T09:44:27;10.68;;;9.57;;
45402;SDS011;47427;51.976;5.326;2022-09-30T09:48:08;12.63;;;9.13;;
45402;SDS011;47427;51.976;5.326;2022-09-30T09:51:33;9.48;;;8.48;;
45402;SDS011;47427;51.976;5.326;2022-09-30T09:55:00;7.68;;;6.88;;
45402;SDS011;47427;51.976;5.326;2022-09-30T09:58:23;8.85;;;7.95;;
45402;SDS011;47427;51.976;5.326;2022-09-30T10:01:50;7.68;;;6.97;;
45402;SDS011;47427;51.976;5.326;2022-09-30T10:05:23;9.13;;;6.82;;
45402;SDS011;47427;51.976;5.326;2022-09-30T10:08:53;10.63;;;6.50;;
45402;SDS011;47427;51.976;5.326;2022-09-30T10:12:16;9.10;;;6.53;;
45402;SDS011;47427;51.976;5.326;2022-09-30T10:15:46;7.57;;;6.20;;
45402;SDS011;47427;51.976;5.326;2022-09-30T10:19:24;5.97;;;4.95;;
45402;SDS011;47427;51.976;5.326;2022-09-30T10:22:49;8.32;;;5.30;;
45402;SDS011;47427;51.976;5.326;2022-09-30T10:26:21;5.13;;;4.63;;
45402;SDS011;47427;51.976;5.326;2022-09-30T10:29:46;6.38;;;4.10;;
45402;SDS011;47427;51.976;5.326;2022-09-30T10:33:52;6.55;;;4.97;;
45402;SDS011;47427;51.976;5.326;2022-09-30T10:37:07;5.43;;;4.93;;
45402;SDS011;47427;51.976;5.326;2022-09-30T10:40:45;5.68;;;4.50;;
45402;SDS011;47427;51.976;5.326;2022-09-30T10:44:17;5.20;;;4.65;;
45402;SDS011;47427;51.976;5.326;2022-09-30T10:47:44;4.30;;;3.90;;
45402;SDS011;47427;51.976;5.326;2022-09-30T10:51:33;4.20;;;3.80;;
45402;SDS011;47427;51.976;5.326;2022-09-30T10:54:58;5.68;;;3.55;;
45402;SDS011;47427;51.976;5.326;2022-09-30T10:59:15;4.13;;;3.78;;
45402;SDS011;47427;51.976;5.326;2022-09-30T11:02:57;3.22;;;2.92;;
45402;SDS011;47427;51.976;5.326;2022-09-30T11:06:27;4.60;;;2.95;;
45402;SDS011;47427;51.976;5.326;2022-09-30T11:09:54;7.95;;;2.78;;
45402;SDS011;47427;51.976;5.326;2022-09-30T11:13:40;3.42;;;2.28;;
45402;SDS011;47427;51.976;5.326;2022-09-30T11:24:55;2.85;;;1.80;;
45402;SDS011;47427;51.976;5.326;2022-09-30T11:28:28;3.13;;;2.30;;
45402;SDS011;47427;51.976;5.326;2022-09-30T11:32:42;1.60;;;1.45;;
45402;SDS011;47427;51.976;5.326;2022-09-30T11:36:19;5.13;;;1.95;;
45402;SDS011;47427;51.976;5.326;2022-09-30T11:58:42;4.90;;;2.25;;
45402;SDS011;47427;51.976;5.326;2022-09-30T12:02:17;2.20;;;2.00;;
45402;SDS011;47427;51.976;5.326;2022-09-30T12:10:25;7.22;;;2.65;;
45402;SDS011;47427;51.976;5.326;2022-09-30T12:13:58;3.25;;;2.45;;
45402;SDS011;47427;51.976;5.326;2022-09-30T12:17:32;3.15;;;2.33;;
45402;SDS011;47427;51.976;5.326;2022-09-30T12:21:03;3.80;;;2.20;;
45402;SDS011;47427;51.976;5.326;2022-09-30T12:24:45;3.22;;;2.67;;
45402;SDS011;47427;51.976;5.326;2022-09-30T12:28:07;4.80;;;2.20;;
45402;SDS011;47427;51.976;5.326;2022-09-30T12:32:41;2.30;;;2.00;;
45402;SDS011;47427;51.976;5.326;2022-09-30T12:40:59;8.07;;;3.20;;
45402;SDS011;47427;51.976;5.326;2022-09-30T12:44:49;4.53;;;2.78;;
45402;SDS011;47427;51.976;5.326;2022-09-30T12:49:08;9.50;;;3.53;;
45402;SDS011;47427;51.976;5.326;2022-09-30T12:52:35;3.97;;;3.33;;
45402;SDS011;47427;51.976;5.326;2022-09-30T12:59:37;7.25;;;4.13;;
45402;SDS011;47427;51.976;5.326;2022-09-30T13:03:15;7.13;;;3.85;;
45402;SDS011;47427;51.976;5.326;2022-09-30T13:10:23;6.25;;;4.40;;
45402;SDS011;47427;51.976;5.326;2022-09-30T13:14:15;6.63;;;4.18;;
45402;SDS011;47427;51.976;5.326;2022-09-30T13:18:54;8.73;;;4.95;;
45402;SDS011;47427;51.976;5.326;2022-09-30T13:21:45;7.25;;;5.07;;
45402;SDS011;47427;51.976;5.326;2022-09-30T13:25:10;10.85;;;4.60;;
45402;SDS011;47427;51.976;5.326;2022-09-30T13:28:37;6.60;;;4.53;;
45402;SDS011;47427;51.976;5.326;2022-09-30T13:32:03;9.55;;;5.65;;
45402;SDS011;47427;51.976;5.326;2022-09-30T13:42:50;5.93;;;4.88;;
45402;SDS011;47427;51.976;5.326;2022-09-30T13:49:44;5.18;;;3.17;;
45402;SDS011;47427;51.976;5.326;2022-09-30T13:53:45;3.00;;;2.15;;
45402;SDS011;47427;51.976;5.326;2022-09-30T13:57:17;4.88;;;2.42;;
45402;SDS011;47427;51.976;5.326;2022-09-30T14:23:58;3.63;;;2.70;;
45402;SDS011;47427;51.976;5.326;2022-09-30T14:27:30;5.68;;;3.17;;
45402;SDS011;47427;51.976;5.326;2022-09-30T14:31:14;5.07;;;2.75;;
45402;SDS011;47427;51.976;5.326;2022-09-30T14:34:36;3.95;;;2.80;;
45402;SDS011;47427;51.976;5.326;2022-09-30T14:38:00;7.70;;;3.70;;
45402;SDS011;47427;51.976;5.326;2022-09-30T14:41:50;6.25;;;3.42;;
45402;SDS011;47427;51.976;5.326;2022-09-30T14:45:24;3.70;;;3.35;;
45402;SDS011;47427;51.976;5.326;2022-09-30T14:48:55;5.60;;;3.75;;
45402;SDS011;47427;51.976;5.326;2022-09-30T14:52:34;8.70;;;4.30;;
45402;SDS011;47427;51.976;5.326;2022-09-30T14:56:02;3.83;;;3.08;;
45402;SDS011;47427;51.976;5.326;2022-09-30T14:59:39;8.05;;;4.28;;
45402;SDS011;47427;51.976;5.326;2022-09-30T15:03:00;4.93;;;3.70;;
45402;SDS011;47427;51.976;5.326;2022-09-30T15:06:23;7.25;;;4.10;;
45402;SDS011;47427;51.976;5.326;2022-09-30T15:09:49;7.35;;;4.10;;
45402;SDS011;47427;51.976;5.326;2022-09-30T15:13:13;5.00;;;4.20;;
45402;SDS011;47427;51.976;5.326;2022-09-30T15:17:15;5.18;;;4.28;;
45402;SDS011;47427;51.976;5.326;2022-09-30T15:20:41;8.18;;;4.68;;
45402;SDS011;47427;51.976;5.326;2022-09-30T15:24:03;6.85;;;4.47;;
45402;SDS011;47427;51.976;5.326;2022-09-30T15:27:31;7.32;;;4.40;;
45402;SDS011;47427;51.976;5.326;2022-09-30T15:30:57;5.80;;;4.50;;
45402;SDS011;47427;51.976;5.326;2022-09-30T15:34:20;9.80;;;3.40;;
45402;SDS011;47427;51.976;5.326;2022-09-30T15:37:46;7.82;;;4.50;;
45402;SDS011;47427;51.976;5.326;2022-09-30T15:41:09;6.15;;;3.75;;
45402;SDS011;47427;51.976;5.326;2022-09-30T15:44:37;5.05;;;3.83;;
45402;SDS011;47427;51.976;5.326;2022-09-30T15:51:44;8.68;;;4.47;;
45402;SDS011;47427;51.976;5.326;2022-09-30T15:59:07;6.35;;;3.95;;
45402;SDS011;47427;51.976;5.326;2022-09-30T16:02:34;6.72;;;3.95;;
45402;SDS011;47427;51.976;5.326;2022-09-30T16:06:03;9.27;;;3.97;;
45402;SDS011;47427;51.976;5.326;2022-09-30T16:12:55;10.88;;;4.18;;
45402;SDS011;47427;51.976;5.326;2022-09-30T16:16:18;4.20;;;3.80;;
45402;SDS011;47427;51.976;5.326;2022-09-30T16:19:48;5.45;;;4.60;;
45402;SDS011;47427;51.976;5.326;2022-09-30T16:23:25;8.07;;;4.72;;
45402;SDS011;47427;51.976;5.326;2022-09-30T16:26:55;6.47;;;4.20;;
45402;SDS011;47427;51.976;5.326;2022-09-30T16:30:20;8.10;;;4.13;;
45402;SDS011;47427;51.976;5.326;2022-09-30T16:33:42;5.78;;;3.75;;
45402;SDS011;47427;51.976;5.326;2022-09-30T16:37:11;6.05;;;4.32;;
45402;SDS011;47427;51.976;5.326;2022-09-30T16:40:38;6.57;;;4.10;;
45402;SDS011;47427;51.976;5.326;2022-09-30T16:44:00;5.13;;;4.10;;
45402;SDS011;47427;51.976;5.326;2022-09-30T16:47:22;4.72;;;3.67;;
45402;SDS011;47427;51.976;5.326;2022-09-30T16:50:48;7.57;;;4.03;;
45402;SDS011;47427;51.976;5.326;2022-09-30T16:54:22;6.30;;;3.50;;
45402;SDS011;47427;51.976;5.326;2022-09-30T16:57:45;4.85;;;3.80;;
45402;SDS011;47427;51.976;5.326;2022-09-30T17:01:12;7.47;;;4.18;;
45402;SDS011;47427;51.976;5.326;2022-09-30T17:04:42;5.65;;;3.95;;
45402;SDS011;47427;51.976;5.326;2022-09-30T17:08:05;9.55;;;4.05;;
45402;SDS011;47427;51.976;5.326;2022-09-30T17:11:35;11.40;;;5.72;;
45402;SDS011;47427;51.976;5.326;2022-09-30T17:15:01;7.90;;;4.72;;
45402;SDS011;47427;51.976;5.326;2022-09-30T17:18:22;6.82;;;4.85;;
45402;SDS011;47427;51.976;5.326;2022-09-30T17:21:45;6.28;;;5.10;;
45402;SDS011;47427;51.976;5.326;2022-09-30T17:25:07;8.63;;;4.60;;
45402;SDS011;47427;51.976;5.326;2022-09-30T17:28:30;10.40;;;4.60;;
45402;SDS011;47427;51.976;5.326;2022-09-30T17:31:55;7.32;;;3.97;;
45402;SDS011;47427;51.976;5.326;2022-09-30T17:35:17;7.55;;;4.25;;
45402;SDS011;47427;51.976;5.326;2022-09-30T17:38:39;4.32;;;3.92;;
45402;SDS011;47427;51.976;5.326;2022-09-30T17:42:05;7.97;;;5.00;;
45402;SDS011;47427;51.976;5.326;2022-09-30T17:49:16;5.22;;;4.63;;
45402;SDS011;47427;51.976;5.326;2022-09-30T17:52:39;8.20;;;4.72;;
45402;SDS011;47427;51.976;5.326;2022-09-30T17:56:02;6.88;;;4.95;;
45402;SDS011;47427;51.976;5.326;2022-09-30T17:59:31;8.20;;;4.93;;
45402;SDS011;47427;51.976;5.326;2022-09-30T18:02:53;8.68;;;4.95;;
45402;SDS011;47427;51.976;5.326;2022-09-30T18:06:16;8.07;;;5.35;;
45402;SDS011;47427;51.976;5.326;2022-09-30T18:09:39;6.57;;;5.35;;
45402;SDS011;47427;51.976;5.326;2022-09-30T18:13:01;7.75;;;5.15;;
45402;SDS011;47427;51.976;5.326;2022-09-30T18:16:24;6.45;;;5.10;;
45402;SDS011;47427;51.976;5.326;2022-09-30T18:23:12;9.07;;;5.82;;
45402;SDS011;47427;51.976;5.326;2022-09-30T18:26:40;10.30;;;5.55;;
45402;SDS011;47427;51.976;5.326;2022-09-30T18:30:03;5.90;;;5.30;;
45402;SDS011;47427;51.976;5.326;2022-09-30T18:33:26;10.48;;;6.50;;
45402;SDS011;47427;51.976;5.326;2022-09-30T18:36:49;7.55;;;4.65;;
45402;SDS011;47427;51.976;5.326;2022-09-30T18:40:10;11.25;;;5.07;;
45402;SDS011;47427;51.976;5.326;2022-09-30T18:43:34;7.70;;;4.88;;
45402;SDS011;47427;51.976;5.326;2022-09-30T18:46:56;6.38;;;5.75;;
45402;SDS011;47427;51.976;5.326;2022-09-30T18:50:20;4.70;;;4.25;;
45402;SDS011;47427;51.976;5.326;2022-09-30T18:53:44;8.13;;;4.60;;
45402;SDS011;47427;51.976;5.326;2022-09-30T18:57:05;8.68;;;4.80;;
45402;SDS011;47427;51.976;5.326;2022-09-30T19:00:28;7.68;;;4.38;;
45402;SDS011;47427;51.976;5.326;2022-09-30T19:03:52;6.68;;;4.40;;
45402;SDS011;47427;51.976;5.326;2022-09-30T19:07:17;8.77;;;3.67;;
45402;SDS011;47427;51.976;5.326;2022-09-30T19:10:40;4.75;;;3.85;;
45402;SDS011;47427;51.976;5.326;2022-09-30T19:14:02;7.25;;;4.47;;
45402;SDS011;47427;51.976;5.326;2022-09-30T19:17:26;7.30;;;5.40;;
45402;SDS011;47427;51.976;5.326;2022-09-30T19:20:52;7.60;;;4.82;;
45402;SDS011;47427;51.976;5.326;2022-09-30T19:24:14;7.57;;;4.50;;
45402;SDS011;47427;51.976;5.326;2022-09-30T19:27:38;5.10;;;4.40;;
45402;SDS011;47427;51.976;5.326;2022-09-30T19:31:05;5.50;;;4.43;;
45402;SDS011;47427;51.976;5.326;2022-09-30T19:34:31;4.47;;;3.42;;
45402;SDS011;47427;51.976;5.326;2022-09-30T19:37:54;5.97;;;4.10;;
45402;SDS011;47427;51.976;5.326;2022-09-30T19:41:16;4.30;;;3.88;;
45402;SDS011;47427;51.976;5.326;2022-09-30T19:44:39;4.50;;;3.65;;
45402;SDS011;47427;51.976;5.326;2022-09-30T19:48:02;6.68;;;3.72;;
45402;SDS011;47427;51.976;5.326;2022-09-30T19:51:24;6.78;;;3.92;;
45402;SDS011;47427;51.976;5.326;2022-09-30T19:54:51;6.40;;;3.67;;
45402;SDS011;47427;51.976;5.326;2022-09-30T19:58:15;7.22;;;4.18;;
45402;SDS011;47427;51.976;5.326;2022-09-30T20:01:38;5.57;;;4.10;;
45402;SDS011;47427;51.976;5.326;2022-09-30T20:05:00;4.32;;;3.80;;
45402;SDS011;47427;51.976;5.326;2022-09-30T20:08:24;7.38;;;4.57;;
45402;SDS011;47427;51.976;5.326;2022-09-30T20:11:47;3.72;;;3.33;;
45402;SDS011;47427;51.976;5.326;2022-09-30T20:15:09;5.20;;;3.65;;
45402;SDS011;47427;51.976;5.326;2022-09-30T20:18:50;7.53;;;4.20;;
45402;SDS011;47427;51.976;5.326;2022-09-30T20:22:12;4.72;;;3.90;;
45402;SDS011;47427;51.976;5.326;2022-09-30T20:25:34;6.07;;;4.88;;
45402;SDS011;47427;51.976;5.326;2022-09-30T20:28:57;4.30;;;3.50;;
45402;SDS011;47427;51.976;5.326;2022-09-30T20:32:21;5.57;;;3.40;;
45402;SDS011;47427;51.976;5.326;2022-09-30T20:35:43;7.22;;;3.60;;
45402;SDS011;47427;51.976;5.326;2022-09-30T20:39:06;7.55;;;4.13;;
45402;SDS011;47427;51.976;5.326;2022-09-30T20:42:29;5.22;;;3.60;;
45402;SDS011;47427;51.976;5.326;2022-09-30T20:45:53;9.90;;;3.90;;
45402;SDS011;47427;51.976;5.326;2022-09-30T20:49:26;8.32;;;3.90;;
45402;SDS011;47427;51.976;5.326;2022-09-30T20:52:48;7.90;;;3.63;;
45402;SDS011;47427;51.976;5.326;2022-09-30T20:56:13;5.80;;;3.90;;
45402;SDS011;47427;51.976;5.326;2022-09-30T20:59:36;5.78;;;4.13;;
45402;SDS011;47427;51.976;5.326;2022-09-30T21:02:57;5.93;;;3.60;;
45402;SDS011;47427;51.976;5.326;2022-09-30T21:06:25;4.70;;;3.63;;
45402;SDS011;47427;51.976;5.326;2022-09-30T21:09:49;6.22;;;4.35;;
45402;SDS011;47427;51.976;5.326;2022-09-30T21:13:12;6.68;;;4.55;;
45402;SDS011;47427;51.976;5.326;2022-09-30T21:16:35;7.72;;;3.97;;
45402;SDS011;47427;51.976;5.326;2022-09-30T21:19:56;10.23;;;4.18;;
45402;SDS011;47427;51.976;5.326;2022-09-30T21:23:19;8.00;;;3.83;;
45402;SDS011;47427;51.976;5.326;2022-09-30T21:26:42;8.98;;;4.57;;
45402;SDS011;47427;51.976;5.326;2022-09-30T21:30:04;5.95;;;4.55;;
45402;SDS011;47427;51.976;5.326;2022-09-30T21:33:28;5.22;;;4.72;;
45402;SDS011;47427;51.976;5.326;2022-09-30T21:36:49;6.97;;;4.53;;
45402;SDS011;47427;51.976;5.326;2022-09-30T21:40:11;8.95;;;5.85;;
45402;SDS011;47427;51.976;5.326;2022-09-30T21:43:34;7.38;;;5.50;;
45402;SDS011;47427;51.976;5.326;2022-09-30T21:46:57;10.07;;;6.07;;
45402;SDS011;47427;51.976;5.326;2022-09-30T21:50:19;6.28;;;5.68;;
45402;SDS011;47427;51.976;5.326;2022-09-30T21:53:42;6.85;;;5.43;;
45402;SDS011;47427;51.976;5.326;2022-09-30T21:57:04;11.73;;;5.40;;
45402;SDS011;47427;51.976;5.326;2022-09-30T22:00:28;8.93;;;6.00;;
45402;SDS011;47427;51.976;5.326;2022-09-30T22:03:51;10.07;;;5.50;;
45402;SDS011;47427;51.976;5.326;2022-09-30T22:07:13;10.48;;;6.00;;
45402;SDS011;47427;51.976;5.326;2022-09-30T22:10:36;10.32;;;6.85;;
45402;SDS011;47427;51.976;5.326;2022-09-30T22:14:02;7.57;;;6.00;;
45402;SDS011;47427;51.976;5.326;2022-09-30T22:17:25;8.80;;;5.90;;
45402;SDS011;47427;51.976;5.326;2022-09-30T22:20:47;8.52;;;6.60;;
45402;SDS011;47427;51.976;5.326;2022-09-30T22:24:09;11.15;;;6.95;;
45402;SDS011;47427;51.976;5.326;2022-09-30T22:27:31;11.68;;;7.75;;
45402;SDS011;47427;51.976;5.326;2022-09-30T22:30:53;9.68;;;6.38;;
45402;SDS011;47427;51.976;5.326;2022-09-30T22:34:35;13.18;;;7.00;;
45402;SDS011;47427;51.976;5.326;2022-09-30T22:38:16;10.00;;;7.05;;
45402;SDS011;47427;51.976;5.326;2022-09-30T22:41:39;10.70;;;8.55;;
45402;SDS011;47427;51.976;5.326;2022-09-30T22:45:01;10.88;;;8.02;;
45402;SDS011;47427;51.976;5.326;2022-09-30T22:48:26;16.05;;;9.00;;
45402;SDS011;47427;51.976;5.326;2022-09-30T22:51:51;12.25;;;8.80;;
45402;SDS011;47427;51.976;5.326;2022-09-30T22:55:16;12.02;;;9.25;;
45402;SDS011;47427;51.976;5.326;2022-09-30T22:58:39;12.98;;;8.93;;
45402;SDS011;47427;51.976;5.326;2022-09-30T23:02:02;10.73;;;8.80;;
45402;SDS011;47427;51.976;5.326;2022-09-30T23:05:26;12.88;;;9.00;;
45402;SDS011;47427;51.976;5.326;2022-09-30T23:08:48;13.38;;;7.85;;
45402;SDS011;47427;51.976;5.326;2022-09-30T23:12:13;10.82;;;8.27;;
45402;SDS011;47427;51.976;5.326;2022-09-30T23:15:35;14.50;;;9.77;;
45402;SDS011;47427;51.976;5.326;2022-09-30T23:18:58;11.00;;;9.23;;
45402;SDS011;47427;51.976;5.326;2022-09-30T23:22:21;18.83;;;10.43;;
45402;SDS011;47427;51.976;5.326;2022-09-30T23:25:44;14.25;;;9.45;;
45402;SDS011;47427;51.976;5.326;2022-09-30T23:29:09;14.65;;;9.93;;